Fonthida Naree — HSJR — position and weather

sailwx.info

Track history (hours):
 
Tides and Currents Weather Stations Pressure Air Temp Water Temp Dewpoint Dewpoint Depression Visibility Wind Speed Wind Dir Waves Ship Positions

Fonthida Naree

Last reported at 2014-Nov-15 19:17 UTC. Time now 2014-Nov-22 10:02 UTC.
Position N 36°49' E 023°33'.

Length 170 m; draft 10.1 m.

Type: Cargo ship. MMSI: 567265000.

Date/timePositionNaut miles runAvg speedWind from/ knotsBaromVisibWave heightAir tempDewpointWater temp
2014-Nov-15 19:17N 36°49' E 023°33'4812.8
2014-Nov-15 15:30N 37°24' E 024°14'1813.0
2014-Nov-15 14:09N 37°37' E 024°30'812.6
2014-Nov-15 13:33N 37°44' E 024°32'2613.0
2014-Nov-15 11:33N 38°09' E 024°43'  
2014-Nov-13 03:04N 45°49' E 031°12'1212.2
2014-Nov-13 02:07N 46°00' E 031°09'1211.7
2014-Nov-13 01:06N 46°11' E 031°00'712.1
2014-Nov-13 00:31N 46°15' E 030°53'9 9.2
2014-Nov-12 23:33N 46°19' E 030°41'1 0.0
2014-Nov-11 12:17N 46°20' E 030°39'0 0.0
2014-Nov-09 19:13N 46°20' E 030°39'0 0.0
2014-Nov-09 09:09N 46°20' E 030°39'0 0.0
2014-Nov-09 08:34N 46°20' E 030°39'0 0.0
2014-Nov-09 07:32N 46°20' E 030°39'0 0.0
2014-Nov-09 06:03N 46°20' E 030°39'0 0.0
2014-Nov-09 05:27N 46°20' E 030°39'0 0.0
2014-Nov-09 03:17N 46°20' E 030°39'0 0.0
2014-Nov-09 02:31N 46°20' E 030°39'0 0.0
2014-Nov-09 01:26N 46°20' E 030°39'6 0.2
2014-Nov-07 11:08N 46°14' E 030°43'0 0.0
2014-Nov-07 10:25N 46°14' E 030°43'0 0.0
2014-Nov-07 09:26N 46°14' E 030°43'0 0.0
2014-Nov-07 08:14N 46°14' E 030°43'0 0.0
2014-Nov-07 06:26N 46°14' E 030°43'9 4.9
2014-Nov-07 04:29N 46°17' E 030°56'9 9.8
2014-Nov-07 03:34N 46°11' E 031°06'1210.9
2014-Nov-07 02:27N 45°60' E 031°13'1111.8
2014-Nov-07 01:33N 45°49' E 031°14'8 6.3
2014-Nov-07 00:20N 45°42' E 031°15'2 0.1
2014-Nov-06 07:34N 45°40' E 031°13'2 1.7
2014-Nov-06 06:34N 45°39' E 031°12'47 7.8
2014-Nov-06 00:34N 46°24' E 030°55'12 8.7
2014-Nov-05 23:11N 46°35' E 031°04'710.7
2014-Nov-05 22:33N 46°35' E 031°14'1111.2
2014-Nov-05 21:33N 46°35' E 031°30'1211.6
2014-Nov-05 20:30N 46°36' E 031°48'1010.3
2014-Nov-05 19:34N 46°44' E 031°56'  
Track history (hours):
 
Tides and Currents Weather Stations Pressure Air Temp Water Temp Dewpoint Dewpoint Depression Visibility Wind Speed Wind Dir Waves Ship Positions

Fonthida Naree

Last reported at 2014-Nov-15 19:17 UTC. Time now 2014-Nov-22 10:02 UTC.
Position N 36°49' E 023°33'.

Length 170 m; draft 10.1 m.

Type: Cargo ship. MMSI: 567265000.

Date/timePositionNaut miles runAvg speedWind from/ knotsBaromVisibWave heightAir tempDewpointWater temp
2014-Nov-15 19:17N 36°49' E 023°33'4812.8
2014-Nov-15 15:30N 37°24' E 024°14'1813.0
2014-Nov-15 14:09N 37°37' E 024°30'812.6
2014-Nov-15 13:33N 37°44' E 024°32'2613.0
2014-Nov-15 11:33N 38°09' E 024°43'  
2014-Nov-13 03:04N 45°49' E 031°12'1212.2
2014-Nov-13 02:07N 46°00' E 031°09'1211.7
2014-Nov-13 01:06N 46°11' E 031°00'712.1
2014-Nov-13 00:31N 46°15' E 030°53'9 9.2
2014-Nov-12 23:33N 46°19' E 030°41'1 0.0
2014-Nov-11 12:17N 46°20' E 030°39'0 0.0
2014-Nov-09 19:13N 46°20' E 030°39'0 0.0
2014-Nov-09 09:09N 46°20' E 030°39'0 0.0
2014-Nov-09 08:34N 46°20' E 030°39'0 0.0
2014-Nov-09 07:32N 46°20' E 030°39'0 0.0
2014-Nov-09 06:03N 46°20' E 030°39'0 0.0
2014-Nov-09 05:27N 46°20' E 030°39'0 0.0
2014-Nov-09 03:17N 46°20' E 030°39'0 0.0
2014-Nov-09 02:31N 46°20' E 030°39'0 0.0
2014-Nov-09 01:26N 46°20' E 030°39'6 0.2
2014-Nov-07 11:08N 46°14' E 030°43'0 0.0
2014-Nov-07 10:25N 46°14' E 030°43'0 0.0
2014-Nov-07 09:26N 46°14' E 030°43'0 0.0
2014-Nov-07 08:14N 46°14' E 030°43'0 0.0
2014-Nov-07 06:26N 46°14' E 030°43'9 4.9
2014-Nov-07 04:29N 46°17' E 030°56'9 9.8
2014-Nov-07 03:34N 46°11' E 031°06'1210.9
2014-Nov-07 02:27N 45°60' E 031°13'1111.8
2014-Nov-07 01:33N 45°49' E 031°14'8 6.3
2014-Nov-07 00:20N 45°42' E 031°15'2 0.1
2014-Nov-06 07:34N 45°40' E 031°13'2 1.7
2014-Nov-06 06:34N 45°39' E 031°12'47 7.8
2014-Nov-06 00:34N 46°24' E 030°55'12 8.7
2014-Nov-05 23:11N 46°35' E 031°04'710.7
2014-Nov-05 22:33N 46°35' E 031°14'1111.2
2014-Nov-05 21:33N 46°35' E 031°30'1211.6
2014-Nov-05 20:30N 46°36' E 031°48'1010.3
2014-Nov-05 19:34N 46°44' E 031°56'  

Dump ship's entire track history